Time;durP1;ratioP1;P1;durP2;ratioP2;P2;SDS_P1;SDS_P2;PMS_P1;PMS_P2;Temp;Humidity;BMP_temperature;BMP_pressure;BME280_temperature;BME280_humidity;BME280_pressure;Samples;Min_cycle;Max_cycle;Signal;HPM_P1;HPM_P2
2022/12/04 00:00:12;;;;;;;57.22;28.25;;;5.00;99.90;;;;;;5053370;28;20363;-88
2022/12/04 00:02:38;;;;;;;49.83;26.98;;;5.10;99.90;;;;;;5053018;28;20079;-89
2022/12/04 00:05:04;;;;;;;48.72;26.70;;;5.30;99.90;;;;;;5053189;28;20047;-88
2022/12/04 00:07:30;;;;;;;49.30;27.38;;;5.20;99.90;;;;;;5052943;28;20104;-89
2022/12/04 00:09:55;;;;;;;51.00;28.85;;;5.10;99.90;;;;;;5053194;28;20395;-88
2022/12/04 00:12:21;;;;;;;47.92;27.75;;;5.00;99.90;;;;;;5053123;28;20029;-89
2022/12/04 00:14:47;;;;;;;50.13;26.65;;;5.00;99.90;;;;;;5052163;28;20561;-88
2022/12/04 00:17:13;;;;;;;49.80;27.80;;;5.10;99.90;;;;;;5053090;28;20029;-88
2022/12/04 00:19:39;;;;;;;53.38;29.25;;;5.30;99.90;;;;;;5034321;28;20032;-88
2022/12/04 00:22:05;;;;;;;51.85;28.30;;;5.00;99.90;;;;;;5032758;28;20056;-89
2022/12/04 00:24:31;;;;;;;47.67;27.40;;;5.50;99.90;;;;;;5031428;28;20038;-89
2022/12/04 00:26:56;;;;;;;50.55;28.25;;;5.10;99.90;;;;;;5032870;28;20025;-89
2022/12/04 00:29:22;;;;;;;48.58;27.27;;;5.50;99.90;;;;;;5032999;28;20543;-89
2022/12/04 00:31:47;;;;;;;52.47;28.45;;;5.10;99.90;;;;;;5033001;28;20037;-88
2022/12/04 00:34:13;;;;;;;49.28;26.85;;;5.00;99.90;;;;;;5048507;28;20032;-88
2022/12/04 00:36:39;;;;;;;49.55;27.65;;;5.00;99.90;;;;;;5052523;28;20028;-88
2022/12/04 00:39:05;;;;;;;53.35;27.65;;;4.90;99.90;;;;;;5052898;28;20059;-88
2022/12/04 00:41:32;;;;;;;50.40;27.95;;;4.90;99.90;;;;;;5052611;28;20045;-88
2022/12/04 00:44:01;;;;;;;51.83;28.23;;;5.00;99.90;;;;;;5052564;28;20036;-89
2022/12/04 00:46:27;;;;;;;47.08;27.63;;;5.10;99.90;;;;;;5052545;28;20032;-88
2022/12/04 00:48:53;;;;;;;47.22;27.77;;;5.40;99.90;;;;;;5052643;28;20151;-89
2022/12/04 00:51:22;;;;;;;49.58;28.58;;;5.00;99.90;;;;;;5052209;28;20036;-89
2022/12/04 00:53:48;;;;;;;51.13;28.90;;;5.00;99.90;;;;;;5052452;28;20021;-88
2022/12/04 00:56:20;;;;;;;43.15;24.85;;;5.10;99.90;;;;;;5052735;28;20032;-89
2022/12/04 00:58:46;;;;;;;44.03;26.25;;;5.00;99.90;;;;;;5051252;28;20048;-88
2022/12/04 01:01:15;;;;;;;48.45;26.67;;;5.00;99.90;;;;;;5051174;28;20068;-88
2022/12/04 01:03:41;;;;;;;50.42;26.60;;;5.40;99.90;;;;;;5051991;28;20029;-89
2022/12/04 01:06:26;;;;;;;46.17;26.23;;;5.00;99.90;;;;;;5052402;28;20033;-88
2022/12/04 01:08:53;;;;;;;46.90;27.23;;;5.10;99.90;;;;;;5052471;28;20226;-88
2022/12/04 01:11:21;;;;;;;45.75;26.95;;;5.20;99.90;;;;;;5052435;28;20102;-89
2022/12/04 01:13:46;;;;;;;45.60;26.23;;;5.10;99.90;;;;;;5052066;28;20032;-88
2022/12/04 01:16:24;;;;;;;49.05;26.52;;;5.20;99.90;;;;;;5052387;28;20040;-89
2022/12/04 01:18:50;;;;;;;49.55;27.27;;;5.40;99.90;;;;;;5040004;28;20029;-89
2022/12/04 01:21:16;;;;;;;50.90;28.85;;;5.40;99.90;;;;;;5032509;28;20045;-88
2022/12/04 01:23:43;;;;;;;50.50;28.33;;;5.20;99.90;;;;;;5031074;28;20025;-88
2022/12/04 01:26:09;;;;;;;54.70;28.98;;;5.20;99.90;;;;;;5032949;28;20057;-88
2022/12/04 01:28:35;;;;;;;55.03;29.30;;;5.30;99.90;;;;;;5036174;28;20022;-89
2022/12/04 01:31:10;;;;;;;57.28;32.03;;;5.30;99.90;;;;;;5036327;28;20034;-88
2022/12/04 01:33:36;;;;;;;49.28;27.60;;;5.30;99.90;;;;;;5046564;28;20029;-89
2022/12/04 01:36:04;;;;;;;49.65;28.70;;;5.40;99.90;;;;;;5056112;28;20120;-88
2022/12/04 01:38:30;;;;;;;48.22;29.75;;;5.40;99.90;;;;;;5055881;28;20021;-89
2022/12/04 01:40:56;;;;;;;54.13;32.30;;;5.70;99.90;;;;;;5054782;28;20033;-89
2022/12/04 01:43:23;;;;;;;46.13;26.77;;;5.40;99.90;;;;;;5055905;28;20091;-89
2022/12/04 01:45:53;;;;;;;51.97;26.38;;;5.40;99.90;;;;;;5055783;28;20086;-88
2022/12/04 01:48:42;;;;;;;47.10;27.75;;;5.40;99.90;;;;;;5055458;28;20032;-89
2022/12/04 01:51:19;;;;;;;51.60;28.52;;;5.30;99.90;;;;;;5055683;28;20053;-88
2022/12/04 01:53:54;;;;;;;52.65;28.75;;;5.30;99.90;;;;;;5055700;28;20032;-88
2022/12/04 01:56:25;;;;;;;54.00;27.65;;;5.30;99.90;;;;;;5055754;28;20024;-89
2022/12/04 01:58:55;;;;;;;52.95;27.95;;;5.30;99.90;;;;;;5054393;28;20455;-88
2022/12/04 02:01:21;;;;;;;49.67;27.63;;;5.30;99.90;;;;;;5055588;28;20028;-89
2022/12/04 02:03:47;;;;;;;46.78;26.50;;;5.20;99.90;;;;;;5055125;28;20032;-88
2022/12/04 02:06:13;;;;;;;49.30;27.98;;;5.20;99.90;;;;;;5055305;28;20033;-89
2022/12/04 02:08:39;;;;;;;50.83;27.48;;;5.10;99.90;;;;;;5055497;28;20025;-89
2022/12/04 02:11:19;;;;;;;50.83;28.65;;;5.40;99.90;;;;;;5054155;28;20025;-88
2022/12/04 02:13:51;;;;;;;48.97;27.58;;;5.20;99.90;;;;;;5055352;28;20090;-88
2022/12/04 02:16:35;;;;;;;48.58;27.63;;;5.30;99.90;;;;;;5055044;28;20025;-88
2022/12/04 02:19:24;;;;;;;44.50;26.60;;;5.30;99.90;;;;;;5041930;28;20067;-88
2022/12/04 02:21:52;;;;;;;48.17;27.70;;;5.30;99.90;;;;;;5028815;28;20525;-89
2022/12/04 02:24:31;;;;;;;48.92;28.42;;;5.30;99.90;;;;;;5035031;28;20032;-89
2022/12/04 02:27:11;;;;;;;48.42;27.58;;;5.30;99.90;;;;;;5035199;28;20128;-89
2022/12/04 02:30:02;;;;;;;50.17;27.67;;;5.30;99.90;;;;;;5033838;28;20037;-88
2022/12/04 02:32:43;;;;;;;52.85;29.75;;;5.30;99.90;;;;;;5036420;28;20057;-88
2022/12/04 02:35:32;;;;;;;49.85;28.67;;;5.30;99.90;;;;;;5053747;28;20025;-88
2022/12/04 02:38:10;;;;;;;51.20;28.08;;;5.30;99.90;;;;;;5053843;28;20029;-88
2022/12/04 02:40:48;;;;;;;53.40;29.65;;;5.40;99.90;;;;;;5054852;28;20555;-89
2022/12/04 02:43:18;;;;;;;52.47;28.50;;;5.30;99.90;;;;;;5054698;28;20403;-88
2022/12/04 02:45:50;;;;;;;52.55;28.60;;;5.30;99.90;;;;;;5054400;28;20039;-89
2022/12/04 02:48:18;;;;;;;51.58;28.45;;;5.20;99.90;;;;;;5054649;28;20116;-89
2022/12/04 02:50:46;;;;;;;49.75;27.92;;;5.20;99.90;;;;;;5054718;28;20021;-88
2022/12/04 02:53:31;;;;;;;49.22;27.88;;;5.10;99.90;;;;;;5054544;28;20108;-89
2022/12/04 02:56:02;;;;;;;56.90;33.45;;;5.40;99.90;;;;;;5054613;28;20048;-89
2022/12/04 02:58:40;;;;;;;53.35;30.95;;;5.30;99.90;;;;;;5054483;28;20025;-88
2022/12/04 03:01:19;;;;;;;49.33;28.75;;;5.30;99.90;;;;;;5054182;28;20029;-88
2022/12/04 03:04:01;;;;;;;54.83;30.35;;;5.50;99.90;;;;;;5054320;28;20021;-88
2022/12/04 03:06:30;;;;;;;45.65;25.60;;;5.20;99.90;;;;;;5054288;28;20037;-89
2022/12/04 03:09:04;;;;;;;47.47;27.08;;;5.10;99.90;;;;;;5054346;28;20087;-88
2022/12/04 03:11:33;;;;;;;47.58;26.30;;;5.10;99.90;;;;;;5054328;28;20470;-88
2022/12/04 03:14:17;;;;;;;44.88;25.30;;;5.10;99.90;;;;;;5054167;28;20055;-88
2022/12/04 03:16:43;;;;;;;55.88;28.95;;;5.20;99.90;;;;;;5053033;28;20037;-89
2022/12/04 03:19:13;;;;;;;45.00;26.20;;;5.20;99.90;;;;;;5039708;28;20099;-88
2022/12/04 03:21:45;;;;;;;55.58;33.13;;;5.50;99.90;;;;;;5033981;28;20030;-88
2022/12/04 03:24:17;;;;;;;49.22;28.08;;;5.10;99.90;;;;;;5034038;28;20501;-89
2022/12/04 03:26:59;;;;;;;51.83;30.30;;;5.50;99.90;;;;;;5033853;28;20099;-88
2022/12/04 03:29:30;;;;;;;72.00;41.33;;;5.40;99.90;;;;;;5032523;28;20038;-88
2022/12/04 03:32:14;;;;;;;54.15;31.70;;;5.40;99.90;;;;;;5033942;28;20075;-88
2022/12/04 03:34:57;;;;;;;46.20;27.90;;;5.20;99.90;;;;;;5053640;28;20024;-88
2022/12/04 03:37:37;;;;;;;44.53;27.30;;;5.30;99.90;;;;;;5053817;28;20021;-88
2022/12/04 03:40:10;;;;;;;43.33;26.10;;;5.30;99.90;;;;;;5052376;28;20029;-88
2022/12/04 03:42:55;;;;;;;43.63;25.65;;;5.40;99.90;;;;;;5053510;28;20039;-89
2022/12/04 03:45:26;;;;;;;46.38;26.10;;;5.70;99.90;;;;;;5053246;28;20549;-89
2022/12/04 03:48:01;;;;;;;44.53;25.25;;;5.40;99.90;;;;;;5053594;28;20033;-89
2022/12/04 03:50:40;;;;;;;43.25;25.58;;;5.40;99.90;;;;;;5053272;28;20075;-88
2022/12/04 03:53:32;;;;;;;44.25;26.63;;;5.30;99.90;;;;;;5052144;28;20096;-88
2022/12/04 03:56:13;;;;;;;44.88;25.40;;;5.30;99.90;;;;;;5053572;28;20013;-88
2022/12/04 03:58:44;;;;;;;45.67;25.63;;;5.30;99.90;;;;;;5052981;28;20466;-89
2022/12/04 04:01:12;;;;;;;42.72;25.38;;;5.20;99.90;;;;;;5053319;28;20127;-89
2022/12/04 04:03:47;;;;;;;49.60;27.17;;;5.20;99.90;;;;;;5053132;28;20036;-88
2022/12/04 04:06:22;;;;;;;42.03;26.10;;;5.30;99.90;;;;;;5053336;28;20029;-89
2022/12/04 04:08:53;;;;;;;45.25;26.95;;;5.30;99.90;;;;;;5053311;28;20078;-88
2022/12/04 04:11:26;;;;;;;43.08;25.52;;;5.30;99.90;;;;;;5053267;28;20036;-88
2022/12/04 04:25:37;;;;;;;45.28;26.35;;;5.10;99.90;;;;;;5011124;28;20048;-88
2022/12/04 04:28:02;;;;;;;43.05;26.15;;;5.40;99.90;;;;;;4994585;28;20541;-88
2022/12/04 04:30:31;;;;;;;46.08;25.17;;;5.00;99.90;;;;;;5011135;28;20029;-89
2022/12/04 04:33:12;;;;;;;43.20;25.90;;;4.90;99.90;;;;;;5016411;28;20561;-89
2022/12/04 04:35:58;;;;;;;42.67;25.67;;;5.20;99.90;;;;;;5030595;28;20026;-89
2022/12/04 04:38:38;;;;;;;42.38;25.70;;;5.20;99.90;;;;;;5030612;28;20445;-89
2022/12/04 04:41:26;;;;;;;44.40;27.15;;;5.30;99.90;;;;;;5030506;28;20033;-88
2022/12/04 04:44:08;;;;;;;47.20;26.67;;;5.20;99.90;;;;;;5030611;28;20141;-88
2022/12/04 04:46:39;;;;;;;45.05;26.58;;;5.40;99.90;;;;;;5030394;28;20073;-88
2022/12/04 04:49:09;;;;;;;44.60;27.10;;;5.40;99.90;;;;;;5030601;28;20029;-89
2022/12/04 04:51:35;;;;;;;41.75;24.65;;;5.40;99.90;;;;;;5030530;28;20025;-88
2022/12/04 04:54:05;;;;;;;40.95;25.10;;;5.50;99.90;;;;;;5030584;28;20517;-88
2022/12/04 04:56:31;;;;;;;44.90;26.17;;;5.50;99.90;;;;;;5030201;28;20033;-89
2022/12/04 04:58:56;;;;;;;42.00;25.45;;;5.40;99.90;;;;;;5034568;28;20044;-88
2022/12/04 05:01:26;;;;;;;42.03;24.48;;;5.40;99.90;;;;;;5052072;28;20509;-89
2022/12/04 05:03:52;;;;;;;40.30;23.90;;;5.40;99.90;;;;;;5052486;28;20021;-89
2022/12/04 05:06:17;;;;;;;40.03;25.20;;;5.40;99.90;;;;;;5052485;28;20082;-89
2022/12/04 05:08:43;;;;;;;45.72;26.70;;;5.40;99.90;;;;;;5052540;28;20029;-88
2022/12/04 05:11:13;;;;;;;40.85;25.60;;;5.50;99.90;;;;;;5052104;28;20508;-89
2022/12/04 05:13:39;;;;;;;47.05;26.13;;;5.40;99.90;;;;;;5052203;28;20438;-88
2022/12/04 05:16:07;;;;;;;44.33;26.35;;;5.40;99.90;;;;;;5052372;28;20032;-88
2022/12/04 05:18:34;;;;;;;46.15;26.98;;;5.50;99.90;;;;;;5042751;28;20029;-88
2022/12/04 05:21:08;;;;;;;43.70;26.55;;;5.60;99.90;;;;;;5032428;28;20036;-89
2022/12/04 05:23:33;;;;;;;45.53;26.98;;;5.40;99.90;;;;;;5032209;28;20025;-89
2022/12/04 05:26:04;;;;;;;42.58;26.60;;;5.30;99.90;;;;;;5031836;28;20103;-89
2022/12/04 05:28:30;;;;;;;47.10;26.30;;;5.40;99.90;;;;;;5032188;28;20474;-88
2022/12/04 05:30:57;;;;;;;45.65;27.08;;;5.40;99.90;;;;;;5032382;28;20021;-89
2022/12/04 05:33:23;;;;;;;47.22;27.95;;;5.60;99.90;;;;;;5041161;28;20067;-88
2022/12/04 05:36:08;;;;;;;46.88;28.02;;;5.50;99.90;;;;;;5052127;28;20032;-88
2022/12/04 05:38:34;;;;;;;46.97;27.10;;;5.30;99.90;;;;;;5052065;28;20021;-88
2022/12/04 05:41:02;;;;;;;43.53;26.90;;;5.40;99.90;;;;;;5051734;28;20509;-89
2022/12/04 05:43:27;;;;;;;42.78;26.77;;;5.40;99.90;;;;;;5052079;28;20102;-89
2022/12/04 05:45:53;;;;;;;40.75;26.23;;;5.40;99.90;;;;;;5052003;28;20068;-89
2022/12/04 05:48:19;;;;;;;44.40;26.73;;;5.50;99.90;;;;;;5052091;28;20036;-88
2022/12/04 05:50:44;;;;;;;44.05;27.08;;;5.50;99.90;;;;;;5052047;28;20025;-89
2022/12/04 05:53:10;;;;;;;41.15;26.02;;;5.50;99.90;;;;;;5051975;28;20029;-89
2022/12/04 05:55:36;;;;;;;43.33;26.05;;;5.50;99.90;;;;;;5051663;28;20025;-89
2022/12/04 05:58:02;;;;;;;42.35;26.70;;;5.50;99.90;;;;;;5052035;28;20079;-88
2022/12/04 06:00:28;;;;;;;40.85;26.17;;;5.50;99.90;;;;;;5052086;28;20079;-88
2022/12/04 06:02:53;;;;;;;42.70;26.30;;;5.30;99.90;;;;;;5051883;28;20386;-89
2022/12/04 06:05:19;;;;;;;42.58;27.20;;;5.90;99.90;;;;;;5050530;28;20075;-89
2022/12/04 06:07:44;;;;;;;41.08;25.42;;;5.70;99.90;;;;;;5050645;28;20055;-88
2022/12/04 06:10:10;;;;;;;42.03;26.13;;;5.40;99.90;;;;;;5050349;28;20022;-89
2022/12/04 06:12:36;;;;;;;40.10;25.13;;;5.70;99.90;;;;;;5051852;28;20037;-88
2022/12/04 06:15:02;;;;;;;39.55;25.52;;;5.50;99.90;;;;;;5055266;28;20029;-88
2022/12/04 06:17:27;;;;;;;41.80;25.52;;;5.60;99.90;;;;;;5054806;28;20107;-88
2022/12/04 06:19:54;;;;;;;40.33;24.55;;;5.80;99.90;;;;;;5035524;28;20082;-89
2022/12/04 06:22:20;;;;;;;42.92;26.02;;;5.60;99.90;;;;;;5035231;28;20025;-88
2022/12/04 06:24:46;;;;;;;38.70;25.05;;;5.60;99.90;;;;;;5034693;28;20045;-88
2022/12/04 06:27:12;;;;;;;39.42;24.27;;;5.30;99.90;;;;;;5034009;28;20037;-89
2022/12/04 06:29:37;;;;;;;38.33;24.27;;;5.20;99.90;;;;;;5035156;28;20045;-88
2022/12/04 06:32:03;;;;;;;40.58;24.08;;;5.20;99.90;;;;;;5035146;28;20029;-88
2022/12/04 06:34:29;;;;;;;36.92;23.67;;;5.30;99.90;;;;;;5051835;28;20025;-87
2022/12/04 06:36:54;;;;;;;40.55;25.02;;;5.40;99.90;;;;;;5054907;28;20040;-89
2022/12/04 06:39:20;;;;;;;37.95;23.63;;;5.40;99.90;;;;;;5054741;28;20021;-88
2022/12/04 06:41:46;;;;;;;40.40;23.83;;;5.40;99.90;;;;;;5054764;28;20032;-89
2022/12/04 06:44:13;;;;;;;37.65;24.15;;;5.40;99.90;;;;;;5054796;28;20029;-89
2022/12/04 06:46:39;;;;;;;38.88;23.83;;;5.40;99.90;;;;;;5054797;28;20033;-89
2022/12/04 06:49:05;;;;;;;39.17;25.17;;;5.40;99.90;;;;;;5054685;28;20104;-88
2022/12/04 06:51:35;;;;;;;40.50;24.60;;;5.40;99.90;;;;;;5053382;28;20025;-88
2022/12/04 06:54:02;;;;;;;37.70;23.25;;;5.40;99.90;;;;;;5054469;28;20029;-89
2022/12/04 06:56:30;;;;;;;37.40;23.80;;;5.70;99.90;;;;;;5054713;28;20049;-88
2022/12/04 06:58:58;;;;;;;43.40;25.95;;;5.40;99.90;;;;;;5054657;28;20025;-88
2022/12/04 07:01:26;;;;;;;39.50;24.42;;;5.40;99.90;;;;;;5054586;28;20025;-88
2022/12/04 07:03:53;;;;;;;38.05;24.23;;;5.30;99.90;;;;;;5054378;28;20032;-89
2022/12/04 07:06:20;;;;;;;39.92;24.05;;;5.50;99.90;;;;;;5053909;28;20082;-89
2022/12/04 07:08:48;;;;;;;41.78;26.02;;;5.20;99.90;;;;;;5054370;28;20021;-88
2022/12/04 07:11:14;;;;;;;38.78;24.85;;;5.40;99.90;;;;;;5053074;28;20031;-88
2022/12/04 07:13:41;;;;;;;39.42;25.23;;;5.40;99.90;;;;;;5054188;28;20110;-88
2022/12/04 07:16:09;;;;;;;41.42;25.58;;;5.40;99.90;;;;;;5054308;28;20432;-88
2022/12/04 07:18:35;;;;;;;40.65;25.10;;;5.80;99.90;;;;;;5044296;28;20021;-88
2022/12/04 07:21:05;;;;;;;39.45;26.13;;;5.70;99.90;;;;;;5033908;28;20040;-89
2022/12/04 07:23:30;;;;;;;43.60;26.48;;;5.50;99.90;;;;;;5033687;28;20462;-89
2022/12/04 07:25:56;;;;;;;43.55;25.90;;;5.40;99.90;;;;;;5033853;28;20099;-88
2022/12/04 07:28:21;;;;;;;43.17;27.10;;;5.40;99.90;;;;;;5034030;28;20493;-88
2022/12/04 07:30:47;;;;;;;43.05;27.10;;;5.50;99.90;;;;;;5032691;28;20029;-88
2022/12/04 07:33:13;;;;;;;45.10;27.42;;;5.50;99.90;;;;;;5041557;28;20071;-88
2022/12/04 07:35:38;;;;;;;42.10;27.48;;;5.60;99.90;;;;;;5053473;28;20104;-88
2022/12/04 07:38:04;;;;;;;42.95;28.05;;;5.70;99.90;;;;;;5053841;28;20025;-88
2022/12/04 07:40:29;;;;;;;43.95;27.90;;;5.60;99.90;;;;;;5053688;28;20393;-88
2022/12/04 07:42:55;;;;;;;46.20;27.77;;;5.60;99.90;;;;;;5052323;28;20481;-88
2022/12/04 07:45:21;;;;;;;43.35;26.60;;;5.60;99.90;;;;;;5053631;28;20029;-88
2022/12/04 07:47:46;;;;;;;41.13;26.25;;;5.70;99.90;;;;;;5053623;28;20036;-88
2022/12/04 07:50:12;;;;;;;44.53;28.10;;;5.70;99.90;;;;;;5051964;28;20029;-88
2022/12/04 07:52:38;;;;;;;47.20;28.15;;;5.70;99.90;;;;;;5053427;28;20055;-88
2022/12/04 07:55:05;;;;;;;42.75;27.30;;;5.80;99.90;;;;;;5053493;28;20053;-88
2022/12/04 07:57:31;;;;;;;41.83;27.38;;;5.80;99.90;;;;;;5053409;28;20032;-88
2022/12/04 07:59:57;;;;;;;42.15;27.60;;;5.70;99.90;;;;;;5053406;28;20029;-88
2022/12/04 08:02:22;;;;;;;41.60;26.95;;;5.80;99.90;;;;;;5052082;28;20035;-88
2022/12/04 08:04:48;;;;;;;44.35;26.88;;;5.80;99.90;;;;;;5052937;28;20101;-89
2022/12/04 08:07:14;;;;;;;38.20;26.10;;;6.00;99.90;;;;;;5053336;28;20040;-88
2022/12/04 08:09:39;;;;;;;48.67;29.98;;;5.80;99.90;;;;;;5053150;28;20051;-88
2022/12/04 08:12:05;;;;;;;46.92;28.80;;;5.80;99.90;;;;;;5053243;28;20059;-88
2022/12/04 08:14:31;;;;;;;43.97;28.05;;;5.90;99.90;;;;;;5053134;28;20021;-88
2022/12/04 08:16:57;;;;;;;45.00;28.52;;;6.20;99.90;;;;;;5053007;28;20029;-89
2022/12/04 08:19:22;;;;;;;44.47;28.27;;;5.90;99.90;;;;;;5036525;28;20124;-88
2022/12/04 08:21:48;;;;;;;45.80;30.95;;;6.00;99.90;;;;;;5033098;28;20071;-88
2022/12/04 08:24:13;;;;;;;47.13;28.88;;;5.90;99.90;;;;;;5032932;28;20389;-88
2022/12/04 08:26:39;;;;;;;42.65;27.92;;;6.00;99.90;;;;;;5033053;28;20494;-88
2022/12/04 08:29:05;;;;;;;41.05;27.52;;;6.00;99.90;;;;;;5032864;28;20551;-88
2022/12/04 08:31:33;;;;;;;42.70;27.83;;;6.00;99.90;;;;;;5032984;28;20084;-88
2022/12/04 08:34:01;;;;;;;41.50;27.63;;;6.30;99.90;;;;;;5046440;28;20025;-88
2022/12/04 08:36:27;;;;;;;42.70;27.55;;;6.20;99.90;;;;;;5051931;28;20056;-88
2022/12/04 08:38:54;;;;;;;43.25;28.48;;;6.00;99.90;;;;;;5052828;28;20040;-89
2022/12/04 08:41:22;;;;;;;43.97;28.50;;;6.00;99.90;;;;;;5052545;28;20112;-88
2022/12/04 08:43:48;;;;;;;41.28;26.52;;;6.00;99.90;;;;;;5052508;28;20032;-89
2022/12/04 08:46:16;;;;;;;46.20;28.15;;;6.40;99.90;;;;;;5052633;28;20033;-89
2022/12/04 08:48:43;;;;;;;46.03;28.25;;;6.00;99.90;;;;;;5051042;28;20036;-88
2022/12/04 08:51:17;;;;;;;46.92;28.50;;;6.00;99.90;;;;;;5051308;28;20436;-88
2022/12/04 08:53:44;;;;;;;43.42;28.05;;;6.00;99.90;;;;;;5052324;28;20475;-88
2022/12/04 08:56:09;;;;;;;41.63;26.15;;;6.40;99.90;;;;;;5052602;28;20036;-88
2022/12/04 08:58:35;;;;;;;44.63;28.52;;;6.00;99.90;;;;;;5052582;28;20033;-88
2022/12/04 09:01:10;;;;;;;68.43;47.97;;;6.10;99.90;;;;;;5052564;28;20029;-88
2022/12/04 09:03:36;;;;;;;83.63;59.25;;;6.10;99.90;;;;;;5051994;28;20025;-88
2022/12/04 09:06:03;;;;;;;40.88;27.55;;;6.50;99.90;;;;;;5051000;28;20029;-89
2022/12/04 09:08:30;;;;;;;43.67;29.02;;;6.20;99.90;;;;;;5052544;28;20025;-88
2022/12/04 09:11:04;;;;;;;75.55;49.92;;;6.20;99.90;;;;;;5052425;28;20086;-89
2022/12/04 09:13:30;;;;;;;64.22;43.95;;;6.10;99.90;;;;;;5052380;28;20068;-88
2022/12/04 09:15:56;;;;;;;130.50;81.63;;;6.10;99.90;;;;;;5052283;28;20497;-89
2022/12/04 09:18:21;;;;;;;45.35;29.35;;;6.10;99.90;;;;;;5044036;28;20147;-88
2022/12/04 09:20:58;;;;;;;74.38;46.78;;;6.00;99.90;;;;;;5031183;28;20079;-88
2022/12/04 09:23:25;;;;;;;72.55;46.70;;;6.00;99.90;;;;;;5032248;28;20030;-88
2022/12/04 09:25:51;;;;;;;47.15;31.85;;;6.20;99.90;;;;;;5032096;28;20077;-89
2022/12/04 09:28:17;;;;;;;50.15;32.63;;;6.70;99.90;;;;;;5032179;28;20064;-88
2022/12/04 09:30:43;;;;;;;43.58;28.35;;;6.20;99.90;;;;;;5032618;28;20037;-89
2022/12/04 09:33:09;;;;;;;47.00;30.02;;;6.30;99.90;;;;;;5038870;28;20115;-88
2022/12/04 09:35:34;;;;;;;50.53;33.15;;;6.20;99.90;;;;;;5052141;28;20033;-88
2022/12/04 09:38:00;;;;;;;45.00;29.58;;;6.20;99.90;;;;;;5052316;28;20017;-88
2022/12/04 09:40:35;;;;;;;42.58;28.50;;;6.30;99.90;;;;;;5052121;28;20104;-88
2022/12/04 09:43:12;;;;;;;45.70;28.52;;;6.30;99.90;;;;;;5052021;28;20033;-88
2022/12/04 09:45:50;;;;;;;38.90;27.05;;;6.40;99.90;;;;;;5051673;28;20026;-88
2022/12/04 09:48:18;;;;;;;44.13;28.80;;;6.40;99.90;;;;;;5054759;28;20048;-88
2022/12/04 09:50:45;;;;;;;39.72;26.77;;;6.70;99.90;;;;;;5055834;28;20025;-88
2022/12/04 09:53:17;;;;;;;43.53;27.88;;;6.20;99.90;;;;;;5055705;28;20095;-88
2022/12/04 09:55:47;;;;;;;43.88;28.23;;;6.10;99.90;;;;;;5055711;28;20029;-88
2022/12/04 09:58:19;;;;;;;41.72;28.23;;;6.20;99.90;;;;;;5055732;28;20029;-88
2022/12/04 10:00:47;;;;;;;63.28;41.50;;;6.20;99.90;;;;;;5055431;28;20053;-88
2022/12/04 10:03:17;;;;;;;45.95;30.48;;;6.20;99.90;;;;;;5055556;28;20492;-88
2022/12/04 10:06:04;;;;;;;44.08;28.30;;;6.30;99.90;;;;;;5055358;28;20032;-88
2022/12/04 10:08:34;;;;;;;47.05;30.65;;;6.40;99.90;;;;;;5054171;28;20451;-88
2022/12/04 10:11:30;;;;;;;51.22;33.05;;;6.60;99.90;;;;;;5054119;28;20037;-88
2022/12/04 10:14:15;;;;;;;57.28;36.33;;;6.70;99.90;;;;;;5055399;28;20024;-89
2022/12/04 10:17:07;;;;;;;50.47;32.78;;;6.80;99.90;;;;;;5054947;28;20032;-88
2022/12/04 10:20:09;;;;;;;63.47;43.75;;;7.00;99.90;;;;;;5037503;28;20386;-89
2022/12/04 10:23:06;;;;;;;48.45;32.33;;;7.40;99.90;;;;;;4993400;28;20054;-88
2022/12/04 10:25:35;;;;;;;42.95;29.50;;;7.20;99.90;;;;;;4993562;28;20055;-88
2022/12/04 10:28:18;;;;;;;41.78;27.40;;;7.30;99.90;;;;;;4993604;28;20574;-89
2022/12/04 10:30:45;;;;;;;39.80;27.52;;;7.30;99.90;;;;;;4993295;28;20030;-88
2022/12/04 10:33:41;;;;;;;42.75;29.02;;;7.70;99.90;;;;;;5000728;28;20053;-89
2022/12/04 10:36:12;;;;;;;43.15;27.67;;;7.50;99.90;;;;;;5009581;28;20034;-88
2022/12/04 10:38:46;;;;;;;36.65;25.17;;;8.10;99.90;;;;;;5013192;28;20109;-89
2022/12/04 10:41:27;;;;;;;38.10;26.95;;;8.70;99.90;;;;;;5012966;28;20034;-89
2022/12/04 10:43:54;;;;;;;39.72;29.48;;;8.90;99.90;;;;;;5012845;28;20032;-89
2022/12/04 10:46:37;;;;;;;38.00;26.45;;;8.80;99.90;;;;;;5013046;28;20053;-88
2022/12/04 10:49:19;;;;;;;37.58;25.88;;;8.70;99.90;;;;;;5013337;28;20033;-88
2022/12/04 10:51:45;;;;;;;37.28;24.88;;;8.40;99.90;;;;;;5013278;28;20029;-89
2022/12/04 10:54:30;;;;;;;35.35;24.42;;;8.20;99.90;;;;;;5012820;28;20038;-88
2022/12/04 10:56:58;;;;;;;33.83;24.60;;;8.30;99.90;;;;;;5012771;28;20034;-89
2022/12/04 10:59:24;;;;;;;35.78;24.52;;;8.20;99.90;;;;;;5027296;28;20033;-89
2022/12/04 11:01:57;;;;;;;33.22;24.25;;;8.50;99.90;;;;;;5054507;28;20018;-89
2022/12/04 11:04:25;;;;;;;39.42;26.10;;;8.10;99.90;;;;;;5054476;28;20040;-89
2022/12/04 11:07:04;;;;;;;37.90;26.38;;;7.90;99.90;;;;;;5054352;28;20063;-89
2022/12/04 11:09:31;;;;;;;34.28;23.67;;;8.10;99.90;;;;;;5054451;28;20025;-89
2022/12/04 11:12:18;;;;;;;33.78;25.30;;;8.20;99.90;;;;;;5054296;28;20064;-89
2022/12/04 11:14:44;;;;;;;41.88;32.00;;;8.20;99.90;;;;;;5054043;28;20524;-89
2022/12/04 11:17:17;;;;;;;34.42;25.63;;;8.30;99.90;;;;;;5054550;28;20022;-89
2022/12/04 11:19:43;;;;;;;34.30;25.13;;;8.30;99.90;;;;;;5034074;28;20037;-89
2022/12/04 11:22:18;;;;;;;33.78;23.92;;;8.20;99.90;;;;;;5034388;28;20478;-89
2022/12/04 11:24:55;;;;;;;36.53;24.80;;;8.30;99.90;;;;;;5034133;28;20052;-89
2022/12/04 11:27:31;;;;;;;36.22;25.48;;;8.30;99.90;;;;;;5032607;28;20060;-89
2022/12/04 11:30:00;;;;;;;35.25;24.48;;;8.30;99.90;;;;;;5034050;28;20049;-89
2022/12/04 11:32:29;;;;;;;33.33;23.80;;;8.20;99.90;;;;;;5035021;28;20190;-88
2022/12/04 11:35:03;;;;;;;33.83;24.30;;;8.10;99.90;;;;;;5054005;28;20025;-89
2022/12/04 11:37:32;;;;;;;39.00;27.90;;;8.20;99.90;;;;;;5054056;28;20025;-89
2022/12/04 11:39:59;;;;;;;37.53;28.10;;;8.70;99.90;;;;;;5052723;28;20029;-89
2022/12/04 11:42:29;;;;;;;32.95;24.80;;;8.50;99.90;;;;;;5053297;28;20047;-88
2022/12/04 11:44:56;;;;;;;36.97;26.48;;;8.10;99.90;;;;;;5053699;28;20033;-89
2022/12/04 11:47:25;;;;;;;39.03;27.52;;;7.80;99.90;;;;;;5052457;28;20548;-88
2022/12/04 11:50:00;;;;;;;38.25;27.40;;;7.70;99.90;;;;;;5052381;28;20071;-89
2022/12/04 11:52:50;;;;;;;37.55;28.02;;;7.90;99.90;;;;;;5053487;28;20436;-89
2022/12/04 11:55:48;;;;;;;42.60;30.10;;;7.70;99.90;;;;;;5053767;28;20025;-89
2022/12/04 11:58:26;;;;;;;39.20;28.13;;;7.70;99.90;;;;;;5043748;28;20037;-89
2022/12/04 12:01:09;;;;;;;35.97;26.10;;;7.60;99.90;;;;;;5053404;28;20366;-88
2022/12/04 12:03:50;;;;;;;36.03;25.60;;;7.70;99.90;;;;;;5053427;28;20032;-88
2022/12/04 12:06:52;;;;;;;32.95;23.20;;;7.80;99.90;;;;;;5053255;28;20040;-89
2022/12/04 12:09:37;;;;;;;33.10;22.75;;;7.60;99.90;;;;;;5053290;28;20025;-88
2022/12/04 12:12:14;;;;;;;32.75;23.05;;;7.50;99.90;;;;;;5052933;28;20101;-88
2022/12/04 12:14:43;;;;;;;35.78;26.08;;;7.60;99.90;;;;;;5053167;28;20473;-89
2022/12/04 12:17:23;;;;;;;34.38;24.00;;;8.20;99.90;;;;;;5053039;28;20025;-88
2022/12/04 12:20:28;;;;;;;30.25;21.58;;;7.90;99.90;;;;;;5033179;28;20112;-89
2022/12/04 12:23:05;;;;;;;29.55;22.35;;;8.00;99.90;;;;;;5033138;28;20033;-88
2022/12/04 12:25:56;;;;;;;29.92;21.13;;;8.30;99.90;;;;;;5032459;28;20091;-89
2022/12/04 12:28:38;;;;;;;28.50;20.92;;;8.20;99.90;;;;;;5033091;28;20053;-88
2022/12/04 12:31:34;;;;;;;30.60;21.30;;;8.10;99.90;;;;;;5033067;28;20043;-88
2022/12/04 12:34:08;;;;;;;32.67;23.75;;;8.00;99.90;;;;;;5046720;28;20040;-88
2022/12/04 12:36:41;;;;;;;30.85;22.45;;;8.10;99.90;;;;;;5052728;28;20024;-89
2022/12/04 12:39:10;;;;;;;35.67;22.80;;;8.40;99.90;;;;;;5052764;28;20440;-88
2022/12/04 12:41:43;;;;;;;33.08;23.83;;;8.30;99.90;;;;;;5052290;28;20167;-89
2022/12/04 12:44:29;;;;;;;31.42;22.58;;;8.40;99.90;;;;;;5052741;28;20060;-89
2022/12/04 12:47:00;;;;;;;29.75;22.45;;;8.50;99.90;;;;;;5051282;28;20029;-88
2022/12/04 12:49:33;;;;;;;29.80;22.90;;;8.30;99.90;;;;;;5052656;28;20025;-88
2022/12/04 12:52:34;;;;;;;31.02;22.77;;;8.50;99.90;;;;;;5052668;28;20035;-88
2022/12/04 12:55:02;;;;;;;33.22;22.70;;;8.20;99.90;;;;;;4993738;28;20128;-88
2022/12/04 12:57:39;;;;;;;36.35;25.17;;;8.30;99.90;;;;;;5010668;28;20045;-88
2022/12/04 13:00:16;;;;;;;27.45;21.45;;;8.40;99.90;;;;;;5010836;28;20471;-88
2022/12/04 13:03:04;;;;;;;32.08;22.55;;;8.30;99.90;;;;;;5010650;28;20033;-88
2022/12/04 13:05:35;;;;;;;34.30;23.13;;;8.30;99.90;;;;;;5010447;28;20041;-88
2022/12/04 13:08:16;;;;;;;35.95;23.98;;;8.20;99.90;;;;;;5010685;28;20050;-88